sensor_id;sensor_type;location;lat;lon;timestamp;pressure;altitude;pressure_sealevel;temperature;humidity
65280;BME280;51878;55.748;48.742;2023-07-02T00:00:11;97162.31;;;13.88;100.00
65280;BME280;51878;55.748;48.742;2023-07-02T00:05:13;97166.06;;;13.77;100.00
65280;BME280;51878;55.748;48.742;2023-07-02T00:10:15;97160.28;;;13.68;100.00
65280;BME280;51878;55.748;48.742;2023-07-02T00:15:19;97173.69;;;13.75;100.00
65280;BME280;51878;55.748;48.742;2023-07-02T00:20:21;97145.78;;;13.52;100.00
65280;BME280;51878;55.748;48.742;2023-07-02T00:25:23;97202.03;;;13.79;100.00
65280;BME280;51878;55.748;48.742;2023-07-02T00:30:25;97204.97;;;13.72;100.00
65280;BME280;51878;55.748;48.742;2023-07-02T00:35:28;97221.41;;;13.82;100.00
65280;BME280;51878;55.748;48.742;2023-07-02T00:40:30;97180.91;;;13.54;100.00
65280;BME280;51878;55.748;48.742;2023-07-02T00:45:33;97209.00;;;13.64;100.00
65280;BME280;51878;55.748;48.742;2023-07-02T00:50:35;97220.50;;;13.72;100.00
65280;BME280;51878;55.748;48.742;2023-07-02T00:55:38;97204.41;;;13.65;100.00
65280;BME280;51878;55.748;48.742;2023-07-02T01:00:40;97173.19;;;13.40;100.00
65280;BME280;51878;55.748;48.742;2023-07-02T01:05:42;97183.88;;;13.47;100.00
65280;BME280;51878;55.748;48.742;2023-07-02T01:10:45;97129.97;;;13.12;100.00
65280;BME280;51878;55.748;48.742;2023-07-02T01:15:48;97229.81;;;13.76;100.00
65280;BME280;51878;55.748;48.742;2023-07-02T01:20:51;97198.31;;;13.53;100.00
65280;BME280;51878;55.748;48.742;2023-07-02T01:25:55;97237.09;;;13.70;100.00
65280;BME280;51878;55.748;48.742;2023-07-02T01:31:00;97173.69;;;13.32;100.00
65280;BME280;51878;55.748;48.742;2023-07-02T01:36:03;97188.13;;;13.38;100.00
65280;BME280;51878;55.748;48.742;2023-07-02T01:41:05;97233.25;;;13.66;100.00
65280;BME280;51878;55.748;48.742;2023-07-02T01:46:07;97162.22;;;13.30;100.00
65280;BME280;51878;55.748;48.742;2023-07-02T01:51:09;97210.34;;;13.62;100.00
65280;BME280;51878;55.748;48.742;2023-07-02T01:56:12;97193.91;;;13.47;100.00
65280;BME280;51878;55.748;48.742;2023-07-02T02:01:14;97241.28;;;13.83;100.00
65280;BME280;51878;55.748;48.742;2023-07-02T02:06:16;97195.34;;;13.54;100.00
65280;BME280;51878;55.748;48.742;2023-07-02T02:11:19;97168.50;;;13.36;100.00
65280;BME280;51878;55.748;48.742;2023-07-02T02:16:21;97253.06;;;13.94;100.00
65280;BME280;51878;55.748;48.742;2023-07-02T02:21:23;97235.84;;;13.83;100.00
65280;BME280;51878;55.748;48.742;2023-07-02T02:26:25;97213.69;;;13.69;100.00
65280;BME280;51878;55.748;48.742;2023-07-02T02:31:29;97204.13;;;13.67;100.00
65280;BME280;51878;55.748;48.742;2023-07-02T02:36:31;97254.22;;;14.08;100.00
65280;BME280;51878;55.748;48.742;2023-07-02T02:41:34;97264.41;;;14.28;100.00
65280;BME280;51878;55.748;48.742;2023-07-02T02:46:36;97248.88;;;14.23;100.00
65280;BME280;51878;55.748;48.742;2023-07-02T02:51:38;97247.88;;;14.45;100.00
65280;BME280;51878;55.748;48.742;2023-07-02T02:56:42;97262.97;;;14.58;100.00
65280;BME280;51878;55.748;48.742;2023-07-02T03:01:45;97244.69;;;14.58;100.00
65280;BME280;51878;55.748;48.742;2023-07-02T03:06:47;97186.47;;;14.32;100.00
65280;BME280;51878;55.748;48.742;2023-07-02T03:11:49;97230.50;;;14.61;100.00
65280;BME280;51878;55.748;48.742;2023-07-02T03:16:52;97204.81;;;14.52;100.00
65280;BME280;51878;55.748;48.742;2023-07-02T03:21:54;97254.88;;;14.94;100.00
65280;BME280;51878;55.748;48.742;2023-07-02T03:26:56;97257.91;;;15.02;100.00
65280;BME280;51878;55.748;48.742;2023-07-02T03:31:59;97210.63;;;14.71;100.00
65280;BME280;51878;55.748;48.742;2023-07-02T03:37:01;97282.75;;;15.06;100.00
65280;BME280;51878;55.748;48.742;2023-07-02T03:42:05;97256.00;;;14.98;100.00
65280;BME280;51878;55.748;48.742;2023-07-02T03:47:07;97259.81;;;15.02;100.00
65280;BME280;51878;55.748;48.742;2023-07-02T03:52:17;97261.19;;;15.09;100.00
65280;BME280;51878;55.748;48.742;2023-07-02T03:57:19;97242.38;;;15.13;100.00
65280;BME280;51878;55.748;48.742;2023-07-02T04:02:21;97231.75;;;15.22;100.00
65280;BME280;51878;55.748;48.742;2023-07-02T04:07:24;97287.75;;;15.65;100.00
65280;BME280;51878;55.748;48.742;2023-07-02T04:12:27;97271.13;;;15.72;100.00
65280;BME280;51878;55.748;48.742;2023-07-02T04:17:29;97277.09;;;15.89;100.00
65280;BME280;51878;55.748;48.742;2023-07-02T04:22:32;97227.38;;;15.77;100.00
65280;BME280;51878;55.748;48.742;2023-07-02T04:27:34;97278.44;;;16.23;100.00
65280;BME280;51878;55.748;48.742;2023-07-02T04:32:51;97247.22;;;16.29;100.00
65280;BME280;51878;55.748;48.742;2023-07-02T04:37:54;97237.59;;;16.42;100.00
65280;BME280;51878;55.748;48.742;2023-07-02T04:42:56;97231.53;;;16.60;100.00
65280;BME280;51878;55.748;48.742;2023-07-02T04:48:05;97284.91;;;17.12;100.00
65280;BME280;51878;55.748;48.742;2023-07-02T04:53:07;97286.06;;;17.46;100.00
65280;BME280;51878;55.748;48.742;2023-07-02T04:58:10;97283.25;;;17.56;100.00
65280;BME280;51878;55.748;48.742;2023-07-02T05:03:12;97271.59;;;17.40;100.00
65280;BME280;51878;55.748;48.742;2023-07-02T05:08:14;97272.56;;;17.60;100.00
65280;BME280;51878;55.748;48.742;2023-07-02T05:13:17;97271.84;;;17.44;100.00
65280;BME280;51878;55.748;48.742;2023-07-02T05:18:19;97235.31;;;17.19;100.00
65280;BME280;51878;55.748;48.742;2023-07-02T05:23:24;97285.22;;;17.50;100.00
65280;BME280;51878;55.748;48.742;2023-07-02T05:28:27;97299.25;;;17.78;100.00
65280;BME280;51878;55.748;48.742;2023-07-02T05:33:30;97267.03;;;17.99;100.00
65280;BME280;51878;55.748;48.742;2023-07-02T05:38:34;97246.84;;;18.14;100.00
65280;BME280;51878;55.748;48.742;2023-07-02T05:43:36;97271.75;;;18.47;100.00
65280;BME280;51878;55.748;48.742;2023-07-02T05:48:38;97281.66;;;18.67;100.00
65280;BME280;51878;55.748;48.742;2023-07-02T05:53:40;97254.72;;;18.69;100.00
65280;BME280;51878;55.748;48.742;2023-07-02T05:58:43;97268.25;;;19.08;100.00
65280;BME280;51878;55.748;48.742;2023-07-02T06:03:50;97258.47;;;19.21;100.00
65280;BME280;51878;55.748;48.742;2023-07-02T06:08:52;97290.19;;;19.51;100.00
65280;BME280;51878;55.748;48.742;2023-07-02T06:13:54;97245.81;;;19.39;100.00
65280;BME280;51878;55.748;48.742;2023-07-02T06:18:57;97278.34;;;19.89;100.00
65280;BME280;51878;55.748;48.742;2023-07-02T06:24:00;97292.69;;;20.32;100.00
65280;BME280;51878;55.748;48.742;2023-07-02T06:29:04;97270.59;;;20.51;100.00
65280;BME280;51878;55.748;48.742;2023-07-02T06:34:06;97315.69;;;20.69;100.00
65280;BME280;51878;55.748;48.742;2023-07-02T06:39:10;97273.97;;;20.76;100.00
65280;BME280;51878;55.748;48.742;2023-07-02T06:44:12;97264.47;;;20.96;97.32
65280;BME280;51878;55.748;48.742;2023-07-02T06:49:14;97273.75;;;21.36;94.85
65280;BME280;51878;55.748;48.742;2023-07-02T06:54:17;97319.41;;;21.56;89.45
65280;BME280;51878;55.748;48.742;2023-07-02T06:59:21;97294.53;;;21.70;87.76
65280;BME280;51878;55.748;48.742;2023-07-02T07:04:24;97250.25;;;21.75;83.56
65280;BME280;51878;55.748;48.742;2023-07-02T07:09:26;97284.41;;;22.11;82.47
65280;BME280;51878;55.748;48.742;2023-07-02T07:14:29;97299.28;;;22.55;79.13
65280;BME280;51878;55.748;48.742;2023-07-02T07:19:31;97299.06;;;22.82;71.69
65280;BME280;51878;55.748;48.742;2023-07-02T07:24:33;97317.06;;;22.71;73.57
65280;BME280;51878;55.748;48.742;2023-07-02T07:29:36;97319.44;;;23.61;71.10
65280;BME280;51878;55.748;48.742;2023-07-02T07:34:38;97277.56;;;23.45;68.10
65280;BME280;51878;55.748;48.742;2023-07-02T07:39:40;97294.19;;;23.63;63.46
65280;BME280;51878;55.748;48.742;2023-07-02T07:44:45;97307.03;;;24.20;63.51
65280;BME280;51878;55.748;48.742;2023-07-02T07:49:47;97305.25;;;24.24;54.59
65280;BME280;51878;55.748;48.742;2023-07-02T07:54:50;97264.31;;;24.29;57.01
65280;BME280;51878;55.748;48.742;2023-07-02T07:59:52;97288.13;;;25.07;53.41
65280;BME280;51878;55.748;48.742;2023-07-02T08:04:54;97290.94;;;24.69;52.03
65280;BME280;51878;55.748;48.742;2023-07-02T08:09:57;97300.81;;;24.23;52.77
65280;BME280;51878;55.748;48.742;2023-07-02T08:15:00;97307.81;;;24.38;55.12
65280;BME280;51878;55.748;48.742;2023-07-02T08:20:05;97298.22;;;24.26;52.84
65280;BME280;51878;55.748;48.742;2023-07-02T08:25:11;97284.28;;;23.97;51.89
65280;BME280;51878;55.748;48.742;2023-07-02T08:30:13;97275.88;;;24.31;52.59
65280;BME280;51878;55.748;48.742;2023-07-02T08:35:15;97278.84;;;24.73;50.14
65280;BME280;51878;55.748;48.742;2023-07-02T08:40:19;97322.19;;;25.16;50.40
65280;BME280;51878;55.748;48.742;2023-07-02T08:45:23;97288.13;;;25.07;49.49
65280;BME280;51878;55.748;48.742;2023-07-02T08:50:27;97318.69;;;24.99;49.79
65280;BME280;51878;55.748;48.742;2023-07-02T08:55:29;97309.44;;;25.15;52.13
65280;BME280;51878;55.748;48.742;2023-07-02T09:00:32;97306.97;;;24.93;49.84
65280;BME280;51878;55.748;48.742;2023-07-02T09:05:50;97305.09;;;24.76;54.11
65280;BME280;51878;55.748;48.742;2023-07-02T09:10:54;97319.03;;;24.41;54.54
65280;BME280;51878;55.748;48.742;2023-07-02T09:15:57;97314.84;;;24.82;54.53
65280;BME280;51878;55.748;48.742;2023-07-02T09:20:59;97321.00;;;25.26;49.57
65280;BME280;51878;55.748;48.742;2023-07-02T09:26:01;97308.78;;;25.19;50.04
65280;BME280;51878;55.748;48.742;2023-07-02T09:31:05;97302.59;;;25.22;48.55
65280;BME280;51878;55.748;48.742;2023-07-02T09:36:07;97297.94;;;25.76;47.23
65280;BME280;51878;55.748;48.742;2023-07-02T09:41:09;97318.78;;;25.91;46.09
65280;BME280;51878;55.748;48.742;2023-07-02T09:46:11;97331.94;;;26.15;45.67
65280;BME280;51878;55.748;48.742;2023-07-02T09:51:14;97305.13;;;26.32;45.17
65280;BME280;51878;55.748;48.742;2023-07-02T09:56:16;97327.16;;;26.95;41.72
65280;BME280;51878;55.748;48.742;2023-07-02T10:01:20;97339.25;;;27.24;39.70
65280;BME280;51878;55.748;48.742;2023-07-02T10:06:22;97321.34;;;27.61;41.72
65280;BME280;51878;55.748;48.742;2023-07-02T10:11:34;97323.69;;;28.28;39.12
65280;BME280;51878;55.748;48.742;2023-07-02T10:16:55;97331.81;;;28.05;38.67
65280;BME280;51878;55.748;48.742;2023-07-02T10:22:02;97322.66;;;28.05;39.87
65280;BME280;51878;55.748;48.742;2023-07-02T10:27:04;97297.97;;;28.63;38.33
65280;BME280;51878;55.748;48.742;2023-07-02T10:32:07;97299.50;;;30.18;35.72
65280;BME280;51878;55.748;48.742;2023-07-02T10:37:10;97332.25;;;30.17;36.21
65280;BME280;51878;55.748;48.742;2023-07-02T10:42:12;97295.25;;;30.43;35.28
65280;BME280;51878;55.748;48.742;2023-07-02T10:47:14;97299.31;;;31.42;32.55
65280;BME280;51878;55.748;48.742;2023-07-02T10:52:16;97309.44;;;31.50;33.30
65280;BME280;51878;55.748;48.742;2023-07-02T10:57:19;97327.47;;;31.26;32.36
65280;BME280;51878;55.748;48.742;2023-07-02T11:02:24;97325.75;;;31.71;32.95
65280;BME280;51878;55.748;48.742;2023-07-02T11:07:26;97275.59;;;31.36;31.78
65280;BME280;51878;55.748;48.742;2023-07-02T11:12:29;97336.97;;;31.71;31.40
65280;BME280;51878;55.748;48.742;2023-07-02T11:17:32;97311.59;;;32.21;30.78
65280;BME280;51878;55.748;48.742;2023-07-02T11:22:36;97319.38;;;33.65;29.19
65280;BME280;51878;55.748;48.742;2023-07-02T11:27:40;97313.41;;;33.77;28.70
65280;BME280;51878;55.748;48.742;2023-07-02T11:32:53;97308.69;;;33.95;27.95
65280;BME280;51878;55.748;48.742;2023-07-02T11:37:56;97306.50;;;34.66;27.30
65280;BME280;51878;55.748;48.742;2023-07-02T11:42:58;97304.81;;;34.32;26.98
65280;BME280;51878;55.748;48.742;2023-07-02T11:48:00;97311.38;;;33.15;27.91
65280;BME280;51878;55.748;48.742;2023-07-02T11:53:02;97274.34;;;30.83;31.66
65280;BME280;51878;55.748;48.742;2023-07-02T11:58:05;97328.63;;;30.56;33.05
65280;BME280;51878;55.748;48.742;2023-07-02T12:03:10;97297.41;;;31.76;31.88
65280;BME280;51878;55.748;48.742;2023-07-02T12:08:12;97338.22;;;31.47;31.84
65280;BME280;51878;55.748;48.742;2023-07-02T12:13:15;97297.13;;;31.05;32.09
65280;BME280;51878;55.748;48.742;2023-07-02T12:18:17;97333.44;;;32.38;30.30
65280;BME280;51878;55.748;48.742;2023-07-02T12:23:19;97326.34;;;33.30;29.68
65280;BME280;51878;55.748;48.742;2023-07-02T12:28:22;97308.16;;;34.74;26.24
65280;BME280;51878;55.748;48.742;2023-07-02T12:33:24;97313.13;;;34.00;27.48
65280;BME280;51878;55.748;48.742;2023-07-02T12:38:26;97366.34;;;33.64;27.31
65280;BME280;51878;55.748;48.742;2023-07-02T12:43:29;97336.97;;;33.58;26.63
65280;BME280;51878;55.748;48.742;2023-07-02T12:48:31;97325.59;;;34.03;26.91
65280;BME280;51878;55.748;48.742;2023-07-02T12:53:33;97329.47;;;32.80;28.18
65280;BME280;51878;55.748;48.742;2023-07-02T12:58:35;97349.94;;;32.81;29.56
65280;BME280;51878;55.748;48.742;2023-07-02T13:03:38;97310.13;;;32.68;29.38
65280;BME280;51878;55.748;48.742;2023-07-02T13:08:47;97312.81;;;30.86;31.34
65280;BME280;51878;55.748;48.742;2023-07-02T13:13:49;97350.81;;;32.51;31.40
65280;BME280;51878;55.748;48.742;2023-07-02T13:18:51;97353.63;;;33.88;28.50
65280;BME280;51878;55.748;48.742;2023-07-02T13:23:57;97355.50;;;34.43;28.00
65280;BME280;51878;55.748;48.742;2023-07-02T13:28:59;97369.41;;;35.34;26.56
65280;BME280;51878;55.748;48.742;2023-07-02T13:34:01;97374.16;;;34.87;27.03
65280;BME280;51878;55.748;48.742;2023-07-02T13:39:04;97369.38;;;35.16;26.85
65280;BME280;51878;55.748;48.742;2023-07-02T13:44:06;97346.44;;;35.18;26.07
65280;BME280;51878;55.748;48.742;2023-07-02T13:49:08;97383.88;;;35.15;26.22
65280;BME280;51878;55.748;48.742;2023-07-02T13:54:13;97386.22;;;36.10;25.58
65280;BME280;51878;55.748;48.742;2023-07-02T13:59:18;97361.88;;;34.33;27.11
65280;BME280;51878;55.748;48.742;2023-07-02T14:04:20;97364.06;;;33.88;28.20
65280;BME280;51878;55.748;48.742;2023-07-02T14:09:25;97281.72;;;31.71;29.75
65280;BME280;51878;55.748;48.742;2023-07-02T14:14:27;97387.41;;;31.44;32.41
65280;BME280;51878;55.748;48.742;2023-07-02T14:19:33;97384.66;;;32.62;30.59
65280;BME280;51878;55.748;48.742;2023-07-02T14:24:35;97357.81;;;33.05;29.98
65280;BME280;51878;55.748;48.742;2023-07-02T14:29:38;97370.13;;;33.34;29.33
65280;BME280;51878;55.748;48.742;2023-07-02T14:34:40;97370.47;;;33.81;29.24
65280;BME280;51878;55.748;48.742;2023-07-02T14:39:42;97405.44;;;33.32;29.55
65280;BME280;51878;55.748;48.742;2023-07-02T14:44:58;97406.19;;;33.73;28.70
65280;BME280;51878;55.748;48.742;2023-07-02T14:50:00;97405.38;;;32.53;30.03
65280;BME280;51878;55.748;48.742;2023-07-02T14:55:05;97363.81;;;31.45;31.22
65280;BME280;51878;55.748;48.742;2023-07-02T15:00:07;97418.28;;;31.48;32.26
65280;BME280;51878;55.748;48.742;2023-07-02T15:05:10;97372.38;;;30.44;33.52
65280;BME280;51878;55.748;48.742;2023-07-02T15:10:13;97402.41;;;29.25;36.02
65280;BME280;51878;55.748;48.742;2023-07-02T15:15:15;97388.28;;;28.46;37.47
65280;BME280;51878;55.748;48.742;2023-07-02T15:20:17;97388.63;;;27.76;39.27
65280;BME280;51878;55.748;48.742;2023-07-02T15:25:20;97434.00;;;27.76;39.92
65280;BME280;51878;55.748;48.742;2023-07-02T15:30:22;97409.97;;;27.23;40.36
65280;BME280;51878;55.748;48.742;2023-07-02T15:35:24;97425.59;;;26.69;42.69
65280;BME280;51878;55.748;48.742;2023-07-02T15:40:28;97394.22;;;26.14;43.71
65280;BME280;51878;55.748;48.742;2023-07-02T15:45:31;97441.78;;;26.13;45.00
65280;BME280;51878;55.748;48.742;2023-07-02T15:50:33;97413.22;;;25.83;45.55
65280;BME280;51878;55.748;48.742;2023-07-02T15:55:35;97452.19;;;25.65;47.24
65280;BME280;51878;55.748;48.742;2023-07-02T16:00:37;97422.78;;;24.96;50.65
65280;BME280;51878;55.748;48.742;2023-07-02T16:05:40;97432.63;;;24.67;53.14
65280;BME280;51878;55.748;48.742;2023-07-02T16:10:43;97463.13;;;24.59;55.80
65280;BME280;51878;55.748;48.742;2023-07-02T16:15:46;97431.81;;;24.06;57.44
65280;BME280;51878;55.748;48.742;2023-07-02T16:20:59;97478.75;;;24.20;58.52
65280;BME280;51878;55.748;48.742;2023-07-02T16:26:04;97439.94;;;23.85;59.02
65280;BME280;51878;55.748;48.742;2023-07-02T16:31:08;97463.22;;;23.84;59.29
65280;BME280;51878;55.748;48.742;2023-07-02T16:36:12;97439.19;;;23.53;59.18
65280;BME280;51878;55.748;48.742;2023-07-02T16:41:14;97400.66;;;23.17;60.37
65280;BME280;51878;55.748;48.742;2023-07-02T16:46:19;97439.59;;;23.29;63.03
65280;BME280;51878;55.748;48.742;2023-07-02T16:51:21;97474.78;;;23.37;65.21
65280;BME280;51878;55.748;48.742;2023-07-02T16:56:23;97489.19;;;23.25;68.72
65280;BME280;51878;55.748;48.742;2023-07-02T17:01:26;97451.88;;;22.83;71.47
65280;BME280;51878;55.748;48.742;2023-07-02T17:06:28;97499.00;;;23.00;68.92
65280;BME280;51878;55.748;48.742;2023-07-02T17:11:30;97477.94;;;22.68;68.67
65280;BME280;51878;55.748;48.742;2023-07-02T17:16:33;97511.38;;;22.80;68.15
65280;BME280;51878;55.748;48.742;2023-07-02T17:21:35;97527.56;;;22.73;68.48
65280;BME280;51878;55.748;48.742;2023-07-02T17:26:37;97526.00;;;22.58;69.54
65280;BME280;51878;55.748;48.742;2023-07-02T17:31:39;97514.81;;;22.13;74.66
65280;BME280;51878;55.748;48.742;2023-07-02T17:36:42;97514.88;;;21.85;79.83
65280;BME280;51878;55.748;48.742;2023-07-02T17:41:47;97541.34;;;21.73;84.21
65280;BME280;51878;55.748;48.742;2023-07-02T17:46:51;97543.09;;;21.55;88.06
65280;BME280;51878;55.748;48.742;2023-07-02T17:51:54;97543.13;;;21.36;92.30
65280;BME280;51878;55.748;48.742;2023-07-02T17:56:57;97562.63;;;21.25;94.73
65280;BME280;51878;55.748;48.742;2023-07-02T18:02:00;97551.13;;;21.04;96.31
65280;BME280;51878;55.748;48.742;2023-07-02T18:07:09;97547.09;;;20.83;95.51
65280;BME280;51878;55.748;48.742;2023-07-02T18:12:16;97552.06;;;20.81;94.25
65280;BME280;51878;55.748;48.742;2023-07-02T18:17:18;97539.78;;;20.59;95.67
65280;BME280;51878;55.748;48.742;2023-07-02T18:22:23;97515.34;;;20.34;97.40
65280;BME280;51878;55.748;48.742;2023-07-02T18:27:26;97545.09;;;20.32;98.08
65280;BME280;51878;55.748;48.742;2023-07-02T18:32:28;97520.31;;;20.13;98.62
65280;BME280;51878;55.748;48.742;2023-07-02T18:37:35;97493.38;;;19.91;100.00
65280;BME280;51878;55.748;48.742;2023-07-02T18:42:38;97571.00;;;20.31;100.00
65280;BME280;51878;55.748;48.742;2023-07-02T18:47:40;97582.88;;;20.26;100.00
65280;BME280;51878;55.748;48.742;2023-07-02T18:52:43;97487.78;;;19.77;100.00
65280;BME280;51878;55.748;48.742;2023-07-02T18:57:49;97570.84;;;20.22;100.00
65280;BME280;51878;55.748;48.742;2023-07-02T19:02:51;97575.59;;;20.16;100.00
65280;BME280;51878;55.748;48.742;2023-07-02T19:07:57;97582.22;;;20.15;100.00
65280;BME280;51878;55.748;48.742;2023-07-02T19:12:59;97574.72;;;19.97;100.00
65280;BME280;51878;55.748;48.742;2023-07-02T19:18:05;97547.09;;;19.59;100.00
65280;BME280;51878;55.748;48.742;2023-07-02T19:23:09;97538.59;;;19.55;100.00
65280;BME280;51878;55.748;48.742;2023-07-02T19:28:32;97546.56;;;19.57;100.00
65280;BME280;51878;55.748;48.742;2023-07-02T19:33:36;97603.72;;;19.89;100.00
65280;BME280;51878;55.748;48.742;2023-07-02T19:38:55;97560.91;;;19.54;100.00
65280;BME280;51878;55.748;48.742;2023-07-02T19:43:58;97558.78;;;19.46;100.00
65280;BME280;51878;55.748;48.742;2023-07-02T19:49:00;97610.81;;;19.66;100.00
65280;BME280;51878;55.748;48.742;2023-07-02T19:54:05;97589.03;;;19.46;100.00
65280;BME280;51878;55.748;48.742;2023-07-02T19:59:07;97622.47;;;19.58;100.00
65280;BME280;51878;55.748;48.742;2023-07-02T20:04:23;97608.56;;;19.44;100.00
65280;BME280;51878;55.748;48.742;2023-07-02T20:09:26;97578.94;;;19.12;100.00
65280;BME280;51878;55.748;48.742;2023-07-02T20:14:28;97586.72;;;18.99;100.00
65280;BME280;51878;55.748;48.742;2023-07-02T20:19:33;97572.56;;;18.82;100.00
65280;BME280;51878;55.748;48.742;2023-07-02T20:24:35;97595.88;;;18.85;100.00
65280;BME280;51878;55.748;48.742;2023-07-02T20:29:37;97601.19;;;18.71;100.00
65280;BME280;51878;55.748;48.742;2023-07-02T20:34:40;97610.50;;;18.75;100.00
65280;BME280;51878;55.748;48.742;2023-07-02T20:39:42;97606.41;;;18.72;100.00
65280;BME280;51878;55.748;48.742;2023-07-02T20:44:45;97552.88;;;18.30;100.00
65280;BME280;51878;55.748;48.742;2023-07-02T20:49:51;97637.41;;;18.73;100.00
65280;BME280;51878;55.748;48.742;2023-07-02T20:54:54;97588.50;;;18.35;100.00
65280;BME280;51878;55.748;48.742;2023-07-02T20:59:56;97614.25;;;18.50;100.00
65280;BME280;51878;55.748;48.742;2023-07-02T21:05:01;97652.28;;;18.67;100.00
65280;BME280;51878;55.748;48.742;2023-07-02T21:10:05;97661.94;;;18.59;100.00
65280;BME280;51878;55.748;48.742;2023-07-02T21:15:08;97671.03;;;18.54;100.00
65280;BME280;51878;55.748;48.742;2023-07-02T21:20:11;97600.44;;;18.05;100.00
65280;BME280;51878;55.748;48.742;2023-07-02T21:25:14;97676.00;;;18.42;100.00
65280;BME280;51878;55.748;48.742;2023-07-02T21:30:16;97644.88;;;18.12;100.00
65280;BME280;51878;55.748;48.742;2023-07-02T21:35:18;97656.13;;;18.11;100.00
65280;BME280;51878;55.748;48.742;2023-07-02T21:40:23;97654.78;;;17.98;100.00
65280;BME280;51878;55.748;48.742;2023-07-02T21:45:25;97693.69;;;18.05;100.00
65280;BME280;51878;55.748;48.742;2023-07-02T21:50:27;97665.78;;;17.77;100.00
65280;BME280;51878;55.748;48.742;2023-07-02T21:55:30;97698.97;;;17.86;100.00
65280;BME280;51878;55.748;48.742;2023-07-02T22:00:32;97706.66;;;17.84;100.00
65280;BME280;51878;55.748;48.742;2023-07-02T22:05:35;97708.84;;;17.82;100.00
65280;BME280;51878;55.748;48.742;2023-07-02T22:10:37;97696.78;;;17.63;100.00
65280;BME280;51878;55.748;48.742;2023-07-02T22:15:39;97684.19;;;17.56;100.00
65280;BME280;51878;55.748;48.742;2023-07-02T22:20:41;97687.47;;;17.53;100.00
65280;BME280;51878;55.748;48.742;2023-07-02T22:25:44;97727.19;;;17.76;100.00
65280;BME280;51878;55.748;48.742;2023-07-02T22:30:46;97688.84;;;17.51;100.00
65280;BME280;51878;55.748;48.742;2023-07-02T22:35:48;97733.78;;;17.70;100.00
65280;BME280;51878;55.748;48.742;2023-07-02T22:40:51;97686.38;;;17.34;100.00
65280;BME280;51878;55.748;48.742;2023-07-02T22:45:53;97728.56;;;17.59;100.00
65280;BME280;51878;55.748;48.742;2023-07-02T22:50:56;97635.16;;;16.99;100.00
65280;BME280;51878;55.748;48.742;2023-07-02T22:56:11;97732.16;;;17.49;100.00
65280;BME280;51878;55.748;48.742;2023-07-02T23:01:17;97745.81;;;17.44;100.00
65280;BME280;51878;55.748;48.742;2023-07-02T23:06:20;97714.03;;;17.07;100.00
65280;BME280;51878;55.748;48.742;2023-07-02T23:11:23;97751.84;;;17.20;100.00
65280;BME280;51878;55.748;48.742;2023-07-02T23:16:26;97770.75;;;17.17;100.00
65280;BME280;51878;55.748;48.742;2023-07-02T23:21:28;97747.72;;;17.02;100.00
65280;BME280;51878;55.748;48.742;2023-07-02T23:26:30;97734.84;;;16.98;100.00
65280;BME280;51878;55.748;48.742;2023-07-02T23:31:33;97676.72;;;16.70;100.00
65280;BME280;51878;55.748;48.742;2023-07-02T23:36:36;97766.09;;;17.22;100.00
65280;BME280;51878;55.748;48.742;2023-07-02T23:41:38;97769.66;;;17.23;100.00
65280;BME280;51878;55.748;48.742;2023-07-02T23:46:40;97780.63;;;17.23;100.00
65280;BME280;51878;55.748;48.742;2023-07-02T23:51:43;97693.69;;;16.72;100.00
65280;BME280;51878;55.748;48.742;2023-07-02T23:56:46;97769.09;;;17.21;100.00
